sensor_id;sensor_type;location;lat;lon;timestamp;P1;durP1;ratioP1;P2;durP2;ratioP2
80854;SDS011;70272;49.222;-122.892;2023-06-22T00:01:17;4.35;;;2.80;;
80854;SDS011;70272;49.222;-122.892;2023-06-22T00:03:43;5.55;;;2.95;;
80854;SDS011;70272;49.222;-122.892;2023-06-22T00:06:09;8.82;;;3.40;;
80854;SDS011;70272;49.222;-122.892;2023-06-22T00:08:36;4.45;;;3.05;;
80854;SDS011;70272;49.222;-122.892;2023-06-22T00:11:02;4.10;;;2.83;;
80854;SDS011;70272;49.222;-122.892;2023-06-22T00:13:28;5.25;;;2.65;;
80854;SDS011;70272;49.222;-122.892;2023-06-22T00:15:54;4.90;;;3.30;;
80854;SDS011;70272;49.222;-122.892;2023-06-22T00:18:21;5.45;;;2.78;;
80854;SDS011;70272;49.222;-122.892;2023-06-22T00:20:47;7.88;;;3.05;;
80854;SDS011;70272;49.222;-122.892;2023-06-22T00:23:13;6.03;;;2.85;;
80854;SDS011;70272;49.222;-122.892;2023-06-22T00:25:45;6.40;;;2.95;;
80854;SDS011;70272;49.222;-122.892;2023-06-22T00:28:12;3.95;;;2.70;;
80854;SDS011;70272;49.222;-122.892;2023-06-22T00:30:38;4.68;;;2.95;;
80854;SDS011;70272;49.222;-122.892;2023-06-22T00:33:04;7.82;;;3.17;;
80854;SDS011;70272;49.222;-122.892;2023-06-22T00:35:32;4.25;;;2.45;;
80854;SDS011;70272;49.222;-122.892;2023-06-22T00:37:59;4.60;;;2.80;;
80854;SDS011;70272;49.222;-122.892;2023-06-22T00:40:27;5.15;;;2.80;;
80854;SDS011;70272;49.222;-122.892;2023-06-22T00:42:54;3.25;;;2.80;;
80854;SDS011;70272;49.222;-122.892;2023-06-22T00:45:21;3.60;;;2.78;;
80854;SDS011;70272;49.222;-122.892;2023-06-22T00:47:52;4.72;;;3.00;;
80854;SDS011;70272;49.222;-122.892;2023-06-22T00:50:23;3.92;;;2.70;;
80854;SDS011;70272;49.222;-122.892;2023-06-22T00:52:52;4.20;;;2.80;;
80854;SDS011;70272;49.222;-122.892;2023-06-22T00:55:22;5.57;;;2.85;;
80854;SDS011;70272;49.222;-122.892;2023-06-22T00:57:49;5.18;;;3.08;;
80854;SDS011;70272;49.222;-122.892;2023-06-22T01:00:15;5.13;;;3.05;;
80854;SDS011;70272;49.222;-122.892;2023-06-22T01:02:44;3.42;;;2.67;;
80854;SDS011;70272;49.222;-122.892;2023-06-22T01:05:17;4.55;;;2.83;;
80854;SDS011;70272;49.222;-122.892;2023-06-22T01:10:46;5.55;;;2.85;;
80854;SDS011;70272;49.222;-122.892;2023-06-22T01:15:50;5.32;;;3.15;;
80854;SDS011;70272;49.222;-122.892;2023-06-22T01:18:39;3.67;;;2.80;;
80854;SDS011;70272;49.222;-122.892;2023-06-22T01:21:09;5.45;;;2.88;;
80854;SDS011;70272;49.222;-122.892;2023-06-22T01:23:46;4.03;;;2.75;;
80854;SDS011;70272;49.222;-122.892;2023-06-22T01:29:06;3.92;;;2.80;;
80854;SDS011;70272;49.222;-122.892;2023-06-22T01:31:34;4.38;;;3.00;;
80854;SDS011;70272;49.222;-122.892;2023-06-22T01:34:04;4.97;;;2.85;;
80854;SDS011;70272;49.222;-122.892;2023-06-22T01:36:31;4.38;;;2.40;;
80854;SDS011;70272;49.222;-122.892;2023-06-22T01:38:58;4.20;;;2.97;;
80854;SDS011;70272;49.222;-122.892;2023-06-22T01:41:25;3.97;;;2.67;;
80854;SDS011;70272;49.222;-122.892;2023-06-22T01:43:52;3.85;;;2.60;;
80854;SDS011;70272;49.222;-122.892;2023-06-22T01:46:19;4.13;;;2.22;;
80854;SDS011;70272;49.222;-122.892;2023-06-22T01:48:46;3.95;;;2.50;;
80854;SDS011;70272;49.222;-122.892;2023-06-22T01:51:16;4.53;;;2.58;;
80854;SDS011;70272;49.222;-122.892;2023-06-22T01:53:42;4.15;;;2.50;;
80854;SDS011;70272;49.222;-122.892;2023-06-22T01:56:08;4.80;;;2.85;;
80854;SDS011;70272;49.222;-122.892;2023-06-22T01:58:35;3.10;;;2.28;;
80854;SDS011;70272;49.222;-122.892;2023-06-22T02:01:12;4.75;;;2.47;;
80854;SDS011;70272;49.222;-122.892;2023-06-22T02:03:52;4.03;;;2.35;;
80854;SDS011;70272;49.222;-122.892;2023-06-22T02:06:27;3.22;;;2.50;;
80854;SDS011;70272;49.222;-122.892;2023-06-22T02:09:01;3.65;;;2.30;;
80854;SDS011;70272;49.222;-122.892;2023-06-22T02:11:31;3.80;;;2.20;;
80854;SDS011;70272;49.222;-122.892;2023-06-22T02:13:58;3.38;;;2.47;;
80854;SDS011;70272;49.222;-122.892;2023-06-22T02:16:24;3.65;;;2.28;;
80854;SDS011;70272;49.222;-122.892;2023-06-22T02:18:55;3.40;;;2.40;;
80854;SDS011;70272;49.222;-122.892;2023-06-22T02:21:23;4.20;;;2.60;;
80854;SDS011;70272;49.222;-122.892;2023-06-22T02:23:49;3.60;;;2.45;;
80854;SDS011;70272;49.222;-122.892;2023-06-22T02:26:16;3.92;;;2.40;;
80854;SDS011;70272;49.222;-122.892;2023-06-22T02:28:43;3.47;;;2.70;;
80854;SDS011;70272;49.222;-122.892;2023-06-22T02:31:09;3.53;;;2.45;;
80854;SDS011;70272;49.222;-122.892;2023-06-22T02:33:36;3.20;;;2.40;;
80854;SDS011;70272;49.222;-122.892;2023-06-22T02:36:02;2.95;;;2.40;;
80854;SDS011;70272;49.222;-122.892;2023-06-22T02:38:31;4.90;;;2.80;;
80854;SDS011;70272;49.222;-122.892;2023-06-22T02:41:01;6.25;;;3.10;;
80854;SDS011;70272;49.222;-122.892;2023-06-22T02:43:28;6.25;;;3.47;;
80854;SDS011;70272;49.222;-122.892;2023-06-22T02:45:55;4.00;;;2.78;;
80854;SDS011;70272;49.222;-122.892;2023-06-22T02:48:21;4.55;;;2.85;;
80854;SDS011;70272;49.222;-122.892;2023-06-22T02:50:47;4.03;;;3.25;;
80854;SDS011;70272;49.222;-122.892;2023-06-22T02:53:14;6.32;;;3.80;;
80854;SDS011;70272;49.222;-122.892;2023-06-22T02:55:40;7.80;;;3.92;;
80854;SDS011;70272;49.222;-122.892;2023-06-22T02:58:06;14.95;;;6.70;;
80854;SDS011;70272;49.222;-122.892;2023-06-22T03:00:32;6.05;;;3.65;;
80854;SDS011;70272;49.222;-122.892;2023-06-22T03:02:58;6.80;;;3.42;;
80854;SDS011;70272;49.222;-122.892;2023-06-22T03:05:25;6.60;;;3.05;;
80854;SDS011;70272;49.222;-122.892;2023-06-22T03:07:51;4.68;;;2.90;;
80854;SDS011;70272;49.222;-122.892;2023-06-22T03:10:17;5.22;;;2.42;;
80854;SDS011;70272;49.222;-122.892;2023-06-22T03:12:43;4.30;;;2.70;;
80854;SDS011;70272;49.222;-122.892;2023-06-22T03:15:11;3.95;;;2.60;;
80854;SDS011;70272;49.222;-122.892;2023-06-22T03:17:38;5.60;;;2.97;;
80854;SDS011;70272;49.222;-122.892;2023-06-22T03:20:06;5.57;;;3.25;;
80854;SDS011;70272;49.222;-122.892;2023-06-22T03:22:39;3.20;;;2.60;;
80854;SDS011;70272;49.222;-122.892;2023-06-22T03:25:07;3.58;;;2.85;;
80854;SDS011;70272;49.222;-122.892;2023-06-22T03:27:39;4.97;;;2.65;;
80854;SDS011;70272;49.222;-122.892;2023-06-22T03:30:06;6.18;;;2.95;;
80854;SDS011;70272;49.222;-122.892;2023-06-22T03:32:34;5.25;;;4.00;;
80854;SDS011;70272;49.222;-122.892;2023-06-22T03:35:00;4.88;;;2.67;;
80854;SDS011;70272;49.222;-122.892;2023-06-22T03:37:27;4.03;;;2.80;;
80854;SDS011;70272;49.222;-122.892;2023-06-22T03:39:54;4.65;;;2.70;;
80854;SDS011;70272;49.222;-122.892;2023-06-22T03:42:21;5.82;;;2.92;;
80854;SDS011;70272;49.222;-122.892;2023-06-22T03:44:47;5.65;;;2.70;;
80854;SDS011;70272;49.222;-122.892;2023-06-22T03:47:13;4.78;;;2.80;;
80854;SDS011;70272;49.222;-122.892;2023-06-22T03:49:39;5.15;;;2.85;;
80854;SDS011;70272;49.222;-122.892;2023-06-22T03:52:06;4.78;;;2.90;;
80854;SDS011;70272;49.222;-122.892;2023-06-22T03:54:33;4.50;;;2.60;;
80854;SDS011;70272;49.222;-122.892;2023-06-22T03:56:59;5.13;;;3.05;;
80854;SDS011;70272;49.222;-122.892;2023-06-22T03:59:25;3.45;;;2.60;;
80854;SDS011;70272;49.222;-122.892;2023-06-22T04:01:51;3.85;;;2.42;;
80854;SDS011;70272;49.222;-122.892;2023-06-22T04:04:18;4.00;;;2.78;;
80854;SDS011;70272;49.222;-122.892;2023-06-22T04:06:44;4.47;;;2.95;;
80854;SDS011;70272;49.222;-122.892;2023-06-22T04:09:10;4.95;;;3.10;;
80854;SDS011;70272;49.222;-122.892;2023-06-22T04:11:37;6.70;;;3.40;;
80854;SDS011;70272;49.222;-122.892;2023-06-22T04:14:03;4.90;;;2.85;;
80854;SDS011;70272;49.222;-122.892;2023-06-22T04:16:29;3.47;;;2.72;;
80854;SDS011;70272;49.222;-122.892;2023-06-22T04:18:56;4.25;;;2.85;;
80854;SDS011;70272;49.222;-122.892;2023-06-22T04:21:22;5.22;;;2.83;;
80854;SDS011;70272;49.222;-122.892;2023-06-22T04:23:48;5.50;;;3.30;;
80854;SDS011;70272;49.222;-122.892;2023-06-22T04:26:14;4.97;;;3.17;;
80854;SDS011;70272;49.222;-122.892;2023-06-22T04:28:41;4.57;;;3.20;;
80854;SDS011;70272;49.222;-122.892;2023-06-22T04:31:07;7.10;;;3.20;;
80854;SDS011;70272;49.222;-122.892;2023-06-22T04:33:33;4.38;;;3.60;;
80854;SDS011;70272;49.222;-122.892;2023-06-22T04:35:59;4.18;;;2.80;;
80854;SDS011;70272;49.222;-122.892;2023-06-22T04:38:29;5.15;;;3.05;;
80854;SDS011;70272;49.222;-122.892;2023-06-22T04:40:58;4.68;;;2.65;;
80854;SDS011;70272;49.222;-122.892;2023-06-22T04:43:27;6.35;;;3.38;;
80854;SDS011;70272;49.222;-122.892;2023-06-22T04:45:56;5.43;;;3.40;;
80854;SDS011;70272;49.222;-122.892;2023-06-22T04:48:28;5.20;;;3.30;;
80854;SDS011;70272;49.222;-122.892;2023-06-22T04:50:59;5.25;;;3.20;;
80854;SDS011;70272;49.222;-122.892;2023-06-22T04:53:30;5.30;;;3.53;;
80854;SDS011;70272;49.222;-122.892;2023-06-22T04:55:57;4.32;;;3.28;;
80854;SDS011;70272;49.222;-122.892;2023-06-22T04:58:23;5.75;;;3.28;;
80854;SDS011;70272;49.222;-122.892;2023-06-22T05:00:53;4.35;;;2.97;;
80854;SDS011;70272;49.222;-122.892;2023-06-22T05:03:22;5.40;;;2.95;;
80854;SDS011;70272;49.222;-122.892;2023-06-22T05:05:51;4.13;;;2.90;;
80854;SDS011;70272;49.222;-122.892;2023-06-22T05:08:19;5.97;;;3.22;;
80854;SDS011;70272;49.222;-122.892;2023-06-22T05:10:45;4.40;;;3.25;;
80854;SDS011;70272;49.222;-122.892;2023-06-22T05:13:11;8.05;;;3.22;;
80854;SDS011;70272;49.222;-122.892;2023-06-22T05:15:37;4.57;;;2.92;;
80854;SDS011;70272;49.222;-122.892;2023-06-22T05:18:05;6.53;;;2.75;;
80854;SDS011;70272;49.222;-122.892;2023-06-22T05:20:32;4.95;;;2.80;;
80854;SDS011;70272;49.222;-122.892;2023-06-22T05:23:01;5.22;;;3.10;;
80854;SDS011;70272;49.222;-122.892;2023-06-22T05:25:27;4.75;;;2.70;;
80854;SDS011;70272;49.222;-122.892;2023-06-22T05:27:57;4.28;;;2.60;;
80854;SDS011;70272;49.222;-122.892;2023-06-22T05:30:24;4.90;;;2.85;;
80854;SDS011;70272;49.222;-122.892;2023-06-22T05:32:50;4.35;;;2.83;;
80854;SDS011;70272;49.222;-122.892;2023-06-22T05:35:18;5.03;;;3.10;;
80854;SDS011;70272;49.222;-122.892;2023-06-22T05:37:44;4.30;;;2.70;;
80854;SDS011;70272;49.222;-122.892;2023-06-22T05:40:10;3.53;;;2.67;;
80854;SDS011;70272;49.222;-122.892;2023-06-22T05:42:37;4.47;;;2.83;;
80854;SDS011;70272;49.222;-122.892;2023-06-22T05:45:03;4.15;;;3.00;;
80854;SDS011;70272;49.222;-122.892;2023-06-22T05:47:30;3.55;;;2.92;;
80854;SDS011;70272;49.222;-122.892;2023-06-22T05:49:56;7.47;;;4.07;;
80854;SDS011;70272;49.222;-122.892;2023-06-22T05:52:23;7.20;;;3.70;;
80854;SDS011;70272;49.222;-122.892;2023-06-22T05:54:49;6.82;;;3.80;;
80854;SDS011;70272;49.222;-122.892;2023-06-22T05:57:16;6.35;;;3.53;;
80854;SDS011;70272;49.222;-122.892;2023-06-22T05:59:42;6.88;;;3.70;;
80854;SDS011;70272;49.222;-122.892;2023-06-22T06:02:08;7.00;;;3.75;;
80854;SDS011;70272;49.222;-122.892;2023-06-22T06:04:34;5.93;;;3.35;;
80854;SDS011;70272;49.222;-122.892;2023-06-22T06:07:00;6.53;;;3.28;;
80854;SDS011;70272;49.222;-122.892;2023-06-22T06:09:27;4.72;;;2.67;;
80854;SDS011;70272;49.222;-122.892;2023-06-22T06:11:53;5.00;;;3.00;;
80854;SDS011;70272;49.222;-122.892;2023-06-22T06:14:19;5.28;;;2.78;;
80854;SDS011;70272;49.222;-122.892;2023-06-22T06:16:46;3.58;;;2.70;;
80854;SDS011;70272;49.222;-122.892;2023-06-22T06:19:13;4.72;;;2.85;;
80854;SDS011;70272;49.222;-122.892;2023-06-22T06:21:39;3.95;;;2.80;;
80854;SDS011;70272;49.222;-122.892;2023-06-22T06:24:06;5.05;;;2.70;;
80854;SDS011;70272;49.222;-122.892;2023-06-22T06:26:32;4.05;;;2.85;;
80854;SDS011;70272;49.222;-122.892;2023-06-22T06:29:00;4.38;;;3.10;;
80854;SDS011;70272;49.222;-122.892;2023-06-22T06:31:27;7.60;;;3.00;;
80854;SDS011;70272;49.222;-122.892;2023-06-22T06:33:54;4.80;;;2.95;;
80854;SDS011;70272;49.222;-122.892;2023-06-22T06:36:20;4.65;;;3.08;;
80854;SDS011;70272;49.222;-122.892;2023-06-22T06:38:47;4.28;;;3.00;;
80854;SDS011;70272;49.222;-122.892;2023-06-22T06:41:14;3.55;;;2.70;;
80854;SDS011;70272;49.222;-122.892;2023-06-22T06:43:41;3.15;;;2.72;;
80854;SDS011;70272;49.222;-122.892;2023-06-22T06:46:08;3.38;;;2.70;;
80854;SDS011;70272;49.222;-122.892;2023-06-22T06:48:35;4.28;;;2.80;;
80854;SDS011;70272;49.222;-122.892;2023-06-22T06:51:01;8.57;;;3.38;;
80854;SDS011;70272;49.222;-122.892;2023-06-22T06:53:28;4.03;;;2.90;;
80854;SDS011;70272;49.222;-122.892;2023-06-22T06:55:54;6.15;;;2.90;;
80854;SDS011;70272;49.222;-122.892;2023-06-22T06:58:21;5.35;;;2.80;;
80854;SDS011;70272;49.222;-122.892;2023-06-22T07:00:48;4.00;;;2.70;;
80854;SDS011;70272;49.222;-122.892;2023-06-22T07:03:14;4.13;;;2.45;;
80854;SDS011;70272;49.222;-122.892;2023-06-22T07:05:41;6.05;;;2.90;;
80854;SDS011;70272;49.222;-122.892;2023-06-22T07:08:07;3.90;;;2.90;;
80854;SDS011;70272;49.222;-122.892;2023-06-22T07:10:33;3.55;;;2.80;;
80854;SDS011;70272;49.222;-122.892;2023-06-22T07:12:59;3.85;;;2.90;;
80854;SDS011;70272;49.222;-122.892;2023-06-22T07:15:26;3.42;;;2.60;;
80854;SDS011;70272;49.222;-122.892;2023-06-22T07:17:52;4.03;;;2.75;;
80854;SDS011;70272;49.222;-122.892;2023-06-22T07:20:19;5.03;;;2.80;;
80854;SDS011;70272;49.222;-122.892;2023-06-22T07:22:45;3.60;;;2.88;;
80854;SDS011;70272;49.222;-122.892;2023-06-22T07:25:11;3.38;;;2.50;;
80854;SDS011;70272;49.222;-122.892;2023-06-22T07:27:46;4.65;;;2.47;;
80854;SDS011;70272;49.222;-122.892;2023-06-22T07:30:22;3.22;;;2.30;;
80854;SDS011;70272;49.222;-122.892;2023-06-22T07:32:48;3.67;;;2.60;;
80854;SDS011;70272;49.222;-122.892;2023-06-22T07:35:14;6.60;;;2.80;;
80854;SDS011;70272;49.222;-122.892;2023-06-22T07:37:42;3.88;;;2.45;;
80854;SDS011;70272;49.222;-122.892;2023-06-22T07:40:08;3.78;;;2.60;;
80854;SDS011;70272;49.222;-122.892;2023-06-22T07:42:35;3.10;;;2.25;;
80854;SDS011;70272;49.222;-122.892;2023-06-22T07:45:02;4.90;;;2.70;;
80854;SDS011;70272;49.222;-122.892;2023-06-22T07:47:30;6.07;;;2.65;;
80854;SDS011;70272;49.222;-122.892;2023-06-22T07:49:58;4.13;;;2.53;;
80854;SDS011;70272;49.222;-122.892;2023-06-22T07:52:26;5.70;;;3.03;;
80854;SDS011;70272;49.222;-122.892;2023-06-22T07:54:53;3.70;;;2.72;;
80854;SDS011;70272;49.222;-122.892;2023-06-22T07:57:20;3.28;;;2.50;;
80854;SDS011;70272;49.222;-122.892;2023-06-22T07:59:46;5.18;;;2.70;;
80854;SDS011;70272;49.222;-122.892;2023-06-22T08:02:12;5.00;;;2.63;;
80854;SDS011;70272;49.222;-122.892;2023-06-22T08:04:39;4.43;;;2.72;;
80854;SDS011;70272;49.222;-122.892;2023-06-22T08:07:06;5.07;;;3.15;;
80854;SDS011;70272;49.222;-122.892;2023-06-22T08:09:33;4.10;;;2.58;;
80854;SDS011;70272;49.222;-122.892;2023-06-22T08:11:59;4.00;;;2.83;;
80854;SDS011;70272;49.222;-122.892;2023-06-22T08:14:26;4.07;;;2.63;;
80854;SDS011;70272;49.222;-122.892;2023-06-22T08:16:55;4.45;;;2.78;;
80854;SDS011;70272;49.222;-122.892;2023-06-22T08:19:21;5.13;;;2.60;;
80854;SDS011;70272;49.222;-122.892;2023-06-22T08:21:47;6.93;;;2.92;;
80854;SDS011;70272;49.222;-122.892;2023-06-22T08:24:14;3.83;;;2.70;;
80854;SDS011;70272;49.222;-122.892;2023-06-22T08:26:40;4.70;;;2.88;;
80854;SDS011;70272;49.222;-122.892;2023-06-22T08:29:06;3.58;;;2.50;;
80854;SDS011;70272;49.222;-122.892;2023-06-22T08:31:32;4.22;;;2.88;;
80854;SDS011;70272;49.222;-122.892;2023-06-22T08:33:59;4.25;;;2.85;;
80854;SDS011;70272;49.222;-122.892;2023-06-22T08:36:26;4.25;;;2.70;;
80854;SDS011;70272;49.222;-122.892;2023-06-22T08:38:58;4.22;;;2.97;;
80854;SDS011;70272;49.222;-122.892;2023-06-22T08:41:28;4.78;;;3.00;;
80854;SDS011;70272;49.222;-122.892;2023-06-22T08:43:55;3.92;;;2.90;;
80854;SDS011;70272;49.222;-122.892;2023-06-22T08:46:21;5.13;;;2.83;;
80854;SDS011;70272;49.222;-122.892;2023-06-22T08:48:50;3.22;;;2.42;;
80854;SDS011;70272;49.222;-122.892;2023-06-22T08:51:16;4.10;;;2.50;;
80854;SDS011;70272;49.222;-122.892;2023-06-22T08:53:42;6.03;;;3.25;;
80854;SDS011;70272;49.222;-122.892;2023-06-22T08:56:10;4.03;;;2.50;;
80854;SDS011;70272;49.222;-122.892;2023-06-22T08:58:36;4.63;;;2.60;;
80854;SDS011;70272;49.222;-122.892;2023-06-22T09:01:02;5.15;;;3.13;;
80854;SDS011;70272;49.222;-122.892;2023-06-22T09:03:29;4.03;;;2.88;;
80854;SDS011;70272;49.222;-122.892;2023-06-22T09:05:58;3.95;;;3.00;;
80854;SDS011;70272;49.222;-122.892;2023-06-22T09:08:24;5.68;;;2.70;;
80854;SDS011;70272;49.222;-122.892;2023-06-22T09:10:50;4.43;;;3.08;;
80854;SDS011;70272;49.222;-122.892;2023-06-22T09:13:17;5.20;;;2.90;;
80854;SDS011;70272;49.222;-122.892;2023-06-22T09:15:43;6.20;;;3.15;;
80854;SDS011;70272;49.222;-122.892;2023-06-22T09:18:13;4.53;;;2.65;;
80854;SDS011;70272;49.222;-122.892;2023-06-22T09:20:39;3.70;;;2.55;;
80854;SDS011;70272;49.222;-122.892;2023-06-22T09:23:05;4.75;;;2.72;;
80854;SDS011;70272;49.222;-122.892;2023-06-22T09:25:32;3.78;;;2.80;;
80854;SDS011;70272;49.222;-122.892;2023-06-22T09:27:58;4.55;;;3.08;;
80854;SDS011;70272;49.222;-122.892;2023-06-22T09:30:25;3.83;;;2.72;;
80854;SDS011;70272;49.222;-122.892;2023-06-22T09:32:51;3.65;;;2.72;;
80854;SDS011;70272;49.222;-122.892;2023-06-22T09:35:17;3.78;;;2.70;;
80854;SDS011;70272;49.222;-122.892;2023-06-22T09:37:43;4.25;;;2.95;;
80854;SDS011;70272;49.222;-122.892;2023-06-22T09:40:10;5.30;;;3.05;;
80854;SDS011;70272;49.222;-122.892;2023-06-22T09:42:38;4.05;;;2.70;;
80854;SDS011;70272;49.222;-122.892;2023-06-22T09:45:05;3.35;;;2.47;;
80854;SDS011;70272;49.222;-122.892;2023-06-22T09:47:32;5.20;;;2.67;;
80854;SDS011;70272;49.222;-122.892;2023-06-22T09:49:58;3.53;;;2.47;;
80854;SDS011;70272;49.222;-122.892;2023-06-22T09:52:25;4.07;;;2.85;;
80854;SDS011;70272;49.222;-122.892;2023-06-22T09:54:51;4.25;;;2.63;;
80854;SDS011;70272;49.222;-122.892;2023-06-22T09:57:17;5.15;;;2.58;;
80854;SDS011;70272;49.222;-122.892;2023-06-22T09:59:44;4.15;;;2.85;;
80854;SDS011;70272;49.222;-122.892;2023-06-22T10:02:10;4.15;;;2.75;;
80854;SDS011;70272;49.222;-122.892;2023-06-22T10:04:36;4.10;;;2.95;;
80854;SDS011;70272;49.222;-122.892;2023-06-22T10:07:02;4.57;;;3.10;;
80854;SDS011;70272;49.222;-122.892;2023-06-22T10:09:29;5.45;;;2.80;;
80854;SDS011;70272;49.222;-122.892;2023-06-22T10:11:55;4.35;;;2.78;;
80854;SDS011;70272;49.222;-122.892;2023-06-22T10:14:21;4.03;;;2.83;;
80854;SDS011;70272;49.222;-122.892;2023-06-22T10:16:49;3.78;;;2.35;;
80854;SDS011;70272;49.222;-122.892;2023-06-22T10:19:17;3.53;;;2.83;;
80854;SDS011;70272;49.222;-122.892;2023-06-22T10:21:43;4.18;;;2.90;;
80854;SDS011;70272;49.222;-122.892;2023-06-22T10:24:10;3.70;;;2.70;;
80854;SDS011;70272;49.222;-122.892;2023-06-22T10:26:36;4.68;;;2.63;;
80854;SDS011;70272;49.222;-122.892;2023-06-22T10:29:03;4.25;;;2.63;;
80854;SDS011;70272;49.222;-122.892;2023-06-22T10:31:29;4.68;;;2.80;;
80854;SDS011;70272;49.222;-122.892;2023-06-22T10:33:55;5.50;;;2.95;;
80854;SDS011;70272;49.222;-122.892;2023-06-22T10:36:22;3.53;;;2.63;;
80854;SDS011;70272;49.222;-122.892;2023-06-22T10:38:48;3.50;;;2.70;;
80854;SDS011;70272;49.222;-122.892;2023-06-22T10:41:15;6.72;;;2.83;;
80854;SDS011;70272;49.222;-122.892;2023-06-22T10:43:42;4.53;;;2.90;;
80854;SDS011;70272;49.222;-122.892;2023-06-22T10:46:08;3.45;;;2.63;;
80854;SDS011;70272;49.222;-122.892;2023-06-22T10:48:35;4.38;;;2.65;;
80854;SDS011;70272;49.222;-122.892;2023-06-22T10:51:01;2.97;;;2.33;;
80854;SDS011;70272;49.222;-122.892;2023-06-22T10:53:27;4.13;;;2.78;;
80854;SDS011;70272;49.222;-122.892;2023-06-22T10:55:53;3.80;;;2.78;;
80854;SDS011;70272;49.222;-122.892;2023-06-22T10:58:20;5.63;;;3.45;;
80854;SDS011;70272;49.222;-122.892;2023-06-22T11:00:46;3.80;;;2.65;;
80854;SDS011;70272;49.222;-122.892;2023-06-22T11:03:12;3.83;;;2.63;;
80854;SDS011;70272;49.222;-122.892;2023-06-22T11:05:39;6.03;;;2.80;;
80854;SDS011;70272;49.222;-122.892;2023-06-22T11:08:07;6.28;;;2.90;;
80854;SDS011;70272;49.222;-122.892;2023-06-22T11:10:33;3.78;;;2.42;;
80854;SDS011;70272;49.222;-122.892;2023-06-22T11:12:59;5.13;;;2.80;;
80854;SDS011;70272;49.222;-122.892;2023-06-22T11:15:28;4.25;;;2.90;;
80854;SDS011;70272;49.222;-122.892;2023-06-22T11:17:54;3.28;;;2.78;;
80854;SDS011;70272;49.222;-122.892;2023-06-22T11:20:20;4.20;;;3.00;;
80854;SDS011;70272;49.222;-122.892;2023-06-22T11:22:46;5.40;;;3.10;;
80854;SDS011;70272;49.222;-122.892;2023-06-22T11:25:13;3.55;;;2.78;;
80854;SDS011;70272;49.222;-122.892;2023-06-22T11:27:39;4.78;;;3.03;;
80854;SDS011;70272;49.222;-122.892;2023-06-22T11:30:05;4.13;;;3.17;;
80854;SDS011;70272;49.222;-122.892;2023-06-22T11:32:32;4.43;;;2.80;;
80854;SDS011;70272;49.222;-122.892;2023-06-22T11:34:59;5.55;;;2.92;;
80854;SDS011;70272;49.222;-122.892;2023-06-22T11:37:25;3.65;;;2.67;;
80854;SDS011;70272;49.222;-122.892;2023-06-22T11:39:51;3.83;;;2.90;;
80854;SDS011;70272;49.222;-122.892;2023-06-22T11:42:20;4.38;;;2.88;;
80854;SDS011;70272;49.222;-122.892;2023-06-22T11:44:49;4.85;;;3.35;;
80854;SDS011;70272;49.222;-122.892;2023-06-22T11:47:15;3.60;;;2.95;;
80854;SDS011;70272;49.222;-122.892;2023-06-22T11:49:41;5.75;;;2.97;;
80854;SDS011;70272;49.222;-122.892;2023-06-22T11:52:07;3.38;;;2.55;;
80854;SDS011;70272;49.222;-122.892;2023-06-22T11:54:34;4.43;;;2.83;;
80854;SDS011;70272;49.222;-122.892;2023-06-22T11:57:00;5.55;;;2.72;;
80854;SDS011;70272;49.222;-122.892;2023-06-22T11:59:26;4.38;;;2.83;;
80854;SDS011;70272;49.222;-122.892;2023-06-22T12:01:53;4.18;;;2.90;;
80854;SDS011;70272;49.222;-122.892;2023-06-22T12:04:19;4.30;;;2.83;;
80854;SDS011;70272;49.222;-122.892;2023-06-22T12:06:48;4.05;;;2.85;;
80854;SDS011;70272;49.222;-122.892;2023-06-22T12:09:14;4.07;;;3.00;;
80854;SDS011;70272;49.222;-122.892;2023-06-22T12:11:40;3.97;;;3.08;;
80854;SDS011;70272;49.222;-122.892;2023-06-22T12:14:06;3.90;;;3.05;;
80854;SDS011;70272;49.222;-122.892;2023-06-22T12:16:33;4.22;;;3.15;;
80854;SDS011;70272;49.222;-122.892;2023-06-22T12:18:59;3.88;;;3.00;;
80854;SDS011;70272;49.222;-122.892;2023-06-22T12:21:25;5.13;;;3.40;;
80854;SDS011;70272;49.222;-122.892;2023-06-22T12:23:52;3.85;;;2.83;;
80854;SDS011;70272;49.222;-122.892;2023-06-22T12:26:18;4.97;;;3.00;;
80854;SDS011;70272;49.222;-122.892;2023-06-22T12:28:45;4.22;;;3.00;;
80854;SDS011;70272;49.222;-122.892;2023-06-22T12:31:11;4.45;;;3.22;;
80854;SDS011;70272;49.222;-122.892;2023-06-22T12:33:37;6.05;;;3.00;;
80854;SDS011;70272;49.222;-122.892;2023-06-22T12:36:04;3.95;;;3.00;;
80854;SDS011;70272;49.222;-122.892;2023-06-22T12:38:30;4.80;;;2.90;;
80854;SDS011;70272;49.222;-122.892;2023-06-22T12:40:56;7.10;;;3.30;;
80854;SDS011;70272;49.222;-122.892;2023-06-22T12:43:23;4.28;;;2.67;;
80854;SDS011;70272;49.222;-122.892;2023-06-22T12:45:49;5.40;;;3.20;;
80854;SDS011;70272;49.222;-122.892;2023-06-22T12:48:15;4.22;;;2.80;;
80854;SDS011;70272;49.222;-122.892;2023-06-22T12:50:42;5.28;;;3.30;;
80854;SDS011;70272;49.222;-122.892;2023-06-22T12:53:08;4.68;;;3.45;;
80854;SDS011;70272;49.222;-122.892;2023-06-22T12:55:34;6.68;;;3.10;;
80854;SDS011;70272;49.222;-122.892;2023-06-22T12:58:01;6.35;;;3.55;;
80854;SDS011;70272;49.222;-122.892;2023-06-22T13:00:27;4.20;;;3.28;;
80854;SDS011;70272;49.222;-122.892;2023-06-22T13:02:53;5.07;;;3.72;;
80854;SDS011;70272;49.222;-122.892;2023-06-22T13:05:19;6.95;;;3.83;;
80854;SDS011;70272;49.222;-122.892;2023-06-22T13:07:46;5.45;;;3.63;;
80854;SDS011;70272;49.222;-122.892;2023-06-22T13:10:12;5.95;;;3.28;;
80854;SDS011;70272;49.222;-122.892;2023-06-22T13:12:38;5.05;;;3.60;;
80854;SDS011;70272;49.222;-122.892;2023-06-22T13:15:05;5.47;;;3.70;;
80854;SDS011;70272;49.222;-122.892;2023-06-22T13:17:31;6.18;;;3.70;;
80854;SDS011;70272;49.222;-122.892;2023-06-22T13:19:58;5.78;;;3.40;;
80854;SDS011;70272;49.222;-122.892;2023-06-22T13:22:33;6.28;;;4.03;;
80854;SDS011;70272;49.222;-122.892;2023-06-22T13:25:08;5.80;;;4.55;;
80854;SDS011;70272;49.222;-122.892;2023-06-22T13:27:41;5.30;;;3.83;;
80854;SDS011;70272;49.222;-122.892;2023-06-22T13:30:08;6.63;;;4.32;;
80854;SDS011;70272;49.222;-122.892;2023-06-22T13:32:34;5.40;;;4.68;;
80854;SDS011;70272;49.222;-122.892;2023-06-22T13:35:01;4.88;;;4.15;;
80854;SDS011;70272;49.222;-122.892;2023-06-22T13:37:27;9.82;;;4.15;;
80854;SDS011;70272;49.222;-122.892;2023-06-22T13:39:53;8.73;;;6.97;;
80854;SDS011;70272;49.222;-122.892;2023-06-22T13:42:21;5.57;;;3.70;;
80854;SDS011;70272;49.222;-122.892;2023-06-22T13:44:47;9.63;;;8.80;;
80854;SDS011;70272;49.222;-122.892;2023-06-22T13:47:13;10.27;;;9.30;;
80854;SDS011;70272;49.222;-122.892;2023-06-22T13:49:39;33.88;;;25.42;;
80854;SDS011;70272;49.222;-122.892;2023-06-22T13:52:06;12.90;;;11.00;;
80854;SDS011;70272;49.222;-122.892;2023-06-22T13:54:35;13.55;;;12.23;;
80854;SDS011;70272;49.222;-122.892;2023-06-22T13:57:02;8.98;;;7.10;;
80854;SDS011;70272;49.222;-122.892;2023-06-22T13:59:28;15.45;;;13.85;;
80854;SDS011;70272;49.222;-122.892;2023-06-22T14:01:55;14.45;;;13.05;;
80854;SDS011;70272;49.222;-122.892;2023-06-22T14:04:25;6.50;;;4.00;;
80854;SDS011;70272;49.222;-122.892;2023-06-22T14:06:51;8.30;;;7.45;;
80854;SDS011;70272;49.222;-122.892;2023-06-22T14:09:17;13.70;;;11.27;;
80854;SDS011;70272;49.222;-122.892;2023-06-22T14:11:44;4.90;;;3.97;;
80854;SDS011;70272;49.222;-122.892;2023-06-22T14:14:10;17.63;;;15.77;;
80854;SDS011;70272;49.222;-122.892;2023-06-22T14:16:36;22.10;;;19.83;;